Time;durP1;ratioP1;P1;durP2;ratioP2;P2;SDS_P1;SDS_P2;PMS_P1;PMS_P2;Temp;Humidity;BMP_temperature;BMP_pressure;BME280_temperature;BME280_humidity;BME280_pressure;Samples;Min_cycle;Max_cycle;Signal;HPM_P1;HPM_P2
2022/09/08 00:00:13;;;;;;;5.37;4.43;;;;;;;19.57;100.00;156393.88;5070037;28;20435;-76
2022/09/08 00:02:40;;;;;;;4.80;4.00;;;;;;;19.51;100.00;156376.97;5069866;28;20449;-76
2022/09/08 00:05:10;;;;;;;5.37;4.87;;;;;;;19.52;100.00;156380.84;5069854;28;20431;-76
2022/09/08 00:07:38;;;;;;;4.40;3.90;;;;;;;19.50;100.00;156375.66;5069459;28;20520;-76
2022/09/08 00:10:05;;;;;;;6.17;4.40;;;;;;;19.50;100.00;156375.66;5069802;28;20466;-76
2022/09/08 00:12:32;;;;;;;4.77;4.37;;;;;;;19.47;100.00;156366.50;5054353;28;20434;-76
2022/09/08 00:14:59;;;;;;;5.17;4.73;;;;;;;19.47;100.00;156367.81;5069368;28;20450;-76
2022/09/08 00:17:26;;;;;;;4.77;4.37;;;;;;;19.56;100.00;156390.00;5053868;28;20474;-76
2022/09/08 00:19:52;;;;;;;5.10;4.60;;;;;;;19.57;100.00;156392.56;5053840;28;20423;-76
2022/09/08 00:22:21;;;;;;;5.13;4.60;;;;;;;19.60;100.00;156401.72;5069602;28;20540;-76
2022/09/08 00:24:47;;;;;;;4.97;4.53;;;;;;;19.53;100.00;156382.16;5069418;28;20533;-76
2022/09/08 00:27:14;;;;;;;5.47;4.97;;;;;;;19.48;100.00;156369.13;5069393;28;20449;-76
2022/09/08 00:29:41;;;;;;;5.10;4.60;;;;;;;19.45;100.00;156362.63;5052907;28;20445;-76
2022/09/08 00:32:07;;;;;;;5.73;5.23;;;;;;;19.37;100.00;156343.06;5069286;28;20451;-76
2022/09/08 00:34:34;;;;;;;6.00;5.40;;;;;;;19.40;100.00;156350.91;5053843;28;20427;-76
2022/09/08 00:37:02;;;;;;;6.70;6.07;;;;;;;19.29;100.00;156322.16;5053532;28;20482;-76
2022/09/08 00:39:30;;;;;;;6.70;6.10;;;;;;;19.26;100.00;156313.03;5053173;28;20439;-76
2022/09/08 00:41:57;;;;;;;6.70;6.07;;;;;;;19.22;100.00;156303.88;5052259;28;20451;-76
2022/09/08 00:44:39;;;;;;;7.70;5.43;;;;;;;19.26;100.00;156314.34;5052538;28;20648;-76
2022/09/08 00:47:13;;;;;;;6.30;5.70;;;;;;;19.20;100.00;156298.69;5053282;28;20435;-76
2022/09/08 00:49:40;;;;;;;6.20;5.67;;;;;;;19.21;100.00;156301.31;5068582;28;20485;-76
2022/09/08 00:52:07;;;;;;;6.83;5.97;;;;;;;19.25;100.00;156311.72;5068823;28;20541;-76
2022/09/08 00:54:35;;;;;;;7.27;5.67;;;;;;;19.25;100.00;156311.72;5051658;28;20445;-76
2022/09/08 00:57:02;;;;;;;7.37;5.40;;;;;;;19.26;100.00;156313.03;5053433;28;20569;-76
2022/09/08 00:59:29;;;;;;;7.73;4.90;;;;;;;19.30;100.00;156323.47;5053069;28;20427;-76
2022/09/08 01:01:55;;;;;;;6.53;5.93;;;;;;;19.26;100.00;156314.34;5053320;28;20439;-76
2022/09/08 01:04:23;;;;;;;6.17;5.50;;;;;;;19.26;100.00;156314.34;5053098;28;20430;-76
2022/09/08 01:12:45;;;;;;;8.70;5.40;;;;;;;19.15;100.00;156285.66;5053118;28;20811;-76
2022/09/08 01:15:14;;;;;;;5.40;4.90;;;;;;;19.17;100.00;156289.53;5068380;28;20790;-76
2022/09/08 01:17:41;;;;;;;5.50;5.10;;;;;;;19.12;100.00;156277.84;5051328;28;20442;-76
2022/09/08 01:20:09;;;;;;;7.07;5.70;;;;;;;19.12;100.00;156276.53;5053199;28;20423;-76
2022/09/08 01:22:51;;;;;;;5.60;4.97;;;;;;;19.12;100.00;156277.84;5068326;28;20450;-75
2022/09/08 01:25:32;;;;;;;6.17;5.67;;;;;;;19.11;100.00;156273.94;5068716;28;20422;-76
2022/09/08 01:28:05;;;;;;;6.40;5.80;;;;;;;19.10;100.00;156272.63;5067762;28;20451;-76
2022/09/08 01:30:33;;;;;;;7.30;5.07;;;;;;;19.13;100.00;156279.16;5068195;28;20439;-76
2022/09/08 01:33:00;;;;;;;7.20;5.40;;;;;;;19.14;100.00;156281.78;5052685;28;20449;-76
2022/09/08 01:35:28;;;;;;;6.30;5.03;;;;;;;19.10;100.00;156272.63;5052514;28;20465;-76
2022/09/08 01:37:55;;;;;;;8.10;5.20;;;;;;;19.08;100.00;156267.44;5067379;28;20791;-75
2022/09/08 01:40:22;;;;;;;5.63;5.10;;;;;;;19.11;100.00;156275.25;5052214;28;20505;-75
2022/09/08 01:42:48;;;;;;;9.20;4.97;;;;;;;19.13;100.00;156280.47;5051291;28;20557;-75
2022/09/08 01:45:17;;;;;;;6.50;5.80;;;;;;;19.15;100.00;156285.66;5052504;28;20430;-76
2022/09/08 01:47:43;;;;;;;8.10;5.70;;;;;;;19.13;100.00;156280.47;5050223;28;20524;-75
2022/09/08 01:50:11;;;;;;;5.93;4.97;;;;;;;19.11;100.00;156275.25;5050924;28;20812;-75
2022/09/08 01:52:37;;;;;;;6.10;5.60;;;;;;;19.13;100.00;156279.16;5050950;28;20451;-75
2022/09/08 01:55:05;;;;;;;5.40;4.90;;;;;;;19.08;100.00;156266.13;5050954;28;20450;-75
2022/09/08 01:57:31;;;;;;;6.43;4.73;;;;;;;19.04;100.00;156255.66;5067602;28;20474;-75
2022/09/08 01:59:58;;;;;;;9.63;5.50;;;;;;;19.04;100.00;156256.97;5067348;28;20488;-75
2022/09/08 02:02:26;;;;;;;5.77;5.20;;;;;;;19.00;100.00;156246.59;5052282;28;20469;-75
2022/09/08 02:04:53;;;;;;;5.27;4.77;;;;;;;19.02;100.00;156251.78;5067153;28;20443;-75
2022/09/08 02:07:20;;;;;;;4.77;4.27;;;;;;;18.90;100.00;156220.53;5051778;28;20431;-75
2022/09/08 02:09:46;;;;;;;4.83;3.80;;;;;;;18.86;100.00;156210.09;5051844;28;20514;-75
2022/09/08 02:12:13;;;;;;;4.83;3.77;;;;;;;18.85;100.00;156207.47;5051823;28;20431;-75
2022/09/08 02:14:40;;;;;;;5.40;3.60;;;;;;;18.83;100.00;156202.25;5051866;28;20976;-75
2022/09/08 02:17:06;;;;;;;4.93;3.57;;;;;;;18.83;100.00;156202.25;5067388;28;20477;-75
2022/09/08 02:19:34;;;;;;;3.87;3.50;;;;;;;18.80;100.00;156195.75;5067265;28;20436;-75
2022/09/08 02:22:01;;;;;;;4.70;3.77;;;;;;;18.73;100.00;156177.53;5067300;28;20439;-75
2022/09/08 02:24:28;;;;;;;3.57;3.00;;;;;;;18.68;100.00;156163.19;5051913;28;20419;-75
2022/09/08 02:26:55;;;;;;;4.10;3.67;;;;;;;18.68;100.00;156164.50;5051996;28;20439;-75
2022/09/08 02:29:23;;;;;;;4.03;3.70;;;;;;;18.66;100.00;156158.00;5066658;28;20434;-75
2022/09/08 02:31:49;;;;;;;4.20;3.40;;;;;;;18.62;100.00;156147.53;5067074;28;20819;-75
2022/09/08 02:34:16;;;;;;;3.50;3.20;;;;;;;18.58;100.00;156137.13;5051695;28;20435;-75
2022/09/08 02:36:44;;;;;;;4.60;3.77;;;;;;;18.59;100.00;156139.72;5051810;28;20481;-75
2022/09/08 02:39:15;;;;;;;3.53;2.97;;;;;;;18.53;100.00;156124.13;5066542;28;20439;-75
2022/09/08 02:41:41;;;;;;;4.90;3.43;;;;;;;18.53;100.00;156124.13;5066559;28;20454;-74
2022/09/08 02:44:09;;;;;;;3.30;3.00;;;;;;;18.47;100.00;156108.44;5067165;28;20576;-75
2022/09/08 02:46:36;;;;;;;4.17;2.50;;;;;;;18.48;100.00;156111.09;5050310;28;20503;-75
2022/09/08 02:49:02;;;;;;;3.43;3.13;;;;;;;18.43;100.00;156097.97;5066548;28;20506;-75
2022/09/08 02:51:29;;;;;;;5.00;2.90;;;;;;;18.38;100.00;156084.97;5067181;28;20435;-75
2022/09/08 02:53:57;;;;;;;2.60;2.40;;;;;;;18.33;100.00;156071.94;5067051;28;20450;-75
2022/09/08 02:56:24;;;;;;;3.50;2.30;;;;;;;18.31;100.00;156066.75;5066843;28;20497;-75
2022/09/08 02:58:51;;;;;;;2.80;2.10;;;;;;;18.30;100.00;156064.13;5066484;28;20442;-75
2022/09/08 03:01:18;;;;;;;2.23;2.03;;;;;;;18.25;100.00;156052.41;5066855;28;20526;-75
2022/09/08 03:03:46;;;;;;;3.73;1.90;;;;;;;18.23;100.00;156047.22;5066682;28;20811;-75
2022/09/08 03:06:13;;;;;;;3.50;2.13;;;;;;;18.15;100.00;156027.69;5050198;28;20835;-75
2022/09/08 03:08:39;;;;;;;2.43;2.10;;;;;;;18.16;100.00;156030.25;5051271;28;20521;-75
2022/09/08 03:11:08;;;;;;;3.00;2.37;;;;;;;18.19;100.00;156038.09;5051393;28;20489;-75
2022/09/08 03:13:37;;;;;;;2.70;2.10;;;;;;;18.11;100.00;156017.25;5051766;28;20477;-75
2022/09/08 03:16:04;;;;;;;3.40;2.83;;;;;;;18.12;100.00;156019.88;5067134;28;20469;-75
2022/09/08 03:18:31;;;;;;;4.47;2.27;;;;;;;18.12;100.00;156019.88;5070049;28;20443;-75
2022/09/08 03:21:02;;;;;;;3.13;2.00;;;;;;;18.13;100.00;156021.19;5070365;28;20461;-75
2022/09/08 03:23:30;;;;;;;2.17;1.97;;;;;;;18.13;100.00;156022.50;5055260;28;20435;-75
2022/09/08 03:26:01;;;;;;;2.87;2.00;;;;;;;18.11;100.00;156015.94;5055019;28;20534;-75
2022/09/08 03:28:29;;;;;;;5.03;1.90;;;;;;;18.08;100.00;156009.41;5054943;28;20805;-75
2022/09/08 03:30:56;;;;;;;2.20;2.00;;;;;;;18.06;100.00;156004.22;5054926;28;20529;-75
2022/09/08 03:33:23;;;;;;;1.87;1.63;;;;;;;18.08;100.00;156008.16;5055096;28;20441;-75
2022/09/08 03:35:49;;;;;;;3.30;2.10;;;;;;;18.05;100.00;156000.34;5070348;28;20504;-75
2022/09/08 03:38:16;;;;;;;1.77;1.50;;;;;;;18.05;100.00;156001.66;5053839;28;20446;-75
2022/09/08 03:40:44;;;;;;;3.23;2.00;;;;;;;18.02;100.00;155992.53;5069905;28;20441;-75
2022/09/08 03:43:11;;;;;;;2.03;1.83;;;;;;;17.99;100.00;155984.69;5054514;28;20537;-75
2022/09/08 03:45:43;;;;;;;1.83;1.60;;;;;;;18.00;100.00;155987.31;5055099;28;20431;-76
2022/09/08 03:48:10;;;;;;;2.67;1.60;;;;;;;17.96;100.00;155978.19;5054243;28;20471;-76
2022/09/08 03:50:37;;;;;;;1.83;1.70;;;;;;;17.87;100.00;155954.72;5053231;28;20993;-77
2022/09/08 03:53:04;;;;;;;3.20;1.60;;;;;;;17.83;100.00;155944.34;5053098;28;20496;-76
2022/09/08 03:55:31;;;;;;;2.10;1.70;;;;;;;17.81;100.00;155937.84;5053017;28;20533;-76
2022/09/08 03:57:59;;;;;;;1.93;1.73;;;;;;;17.82;100.00;155941.72;5054587;28;20481;-76
2022/09/08 04:00:26;;;;;;;2.90;1.43;;;;;;;17.79;100.00;155932.63;5052571;28;20438;-76
2022/09/08 04:02:54;;;;;;;2.20;1.37;;;;;;;17.73;100.00;155918.31;5052754;28;20453;-77
2022/09/08 04:05:21;;;;;;;1.87;1.27;;;;;;;17.74;100.00;155920.88;5054346;28;20435;-76
2022/09/08 04:07:48;;;;;;;1.23;1.00;;;;;;;17.70;100.00;155910.50;5070135;28;20542;-76
2022/09/08 04:10:16;;;;;;;1.40;1.10;;;;;;;17.63;100.00;155892.28;5069111;28;20717;-75
2022/09/08 04:12:42;;;;;;;1.63;1.27;;;;;;;17.61;100.00;155887.03;5052921;28;20707;-76
2022/09/08 04:15:10;;;;;;;2.57;1.50;;;;;;;17.63;100.00;155892.28;5069501;28;20454;-75
2022/09/08 04:17:37;;;;;;;2.10;1.50;;;;;;;17.62;100.00;155890.97;5069382;28;20486;-75
2022/09/08 04:20:07;;;;;;;1.33;1.17;;;;;;;17.60;100.00;155884.47;5053667;28;20422;-75
2022/09/08 04:22:34;;;;;;;1.57;1.37;;;;;;;17.61;100.00;155887.03;5069557;28;20980;-75
2022/09/08 04:25:02;;;;;;;1.97;1.20;;;;;;;17.55;100.00;155872.72;5069311;28;20430;-75
2022/09/08 04:27:28;;;;;;;2.20;1.40;;;;;;;17.53;100.00;155867.53;5069222;28;20447;-75
2022/09/08 04:29:55;;;;;;;3.63;1.30;;;;;;;17.46;100.00;155847.94;5052258;28;20437;-75
2022/09/08 04:32:22;;;;;;;1.33;1.10;;;;;;;17.52;100.00;155863.59;5054012;28;20439;-75
2022/09/08 04:34:50;;;;;;;1.50;1.17;;;;;;;17.50;100.00;155858.38;5069313;28;20430;-75
2022/09/08 04:37:18;;;;;;;2.60;1.43;;;;;;;17.52;100.00;155863.59;5053498;28;20486;-75
2022/09/08 04:39:45;;;;;;;1.77;1.13;;;;;;;17.49;100.00;155855.78;5051911;28;20434;-75
2022/09/08 04:42:11;;;;;;;1.67;0.90;;;;;;;17.47;100.00;155851.84;5052325;28;20446;-75
2022/09/08 04:44:38;;;;;;;2.10;1.37;;;;;;;17.46;100.00;155849.25;5052018;28;20479;-76
2022/09/08 04:47:05;;;;;;;2.27;1.20;;;;;;;17.48;100.00;155853.16;5052118;28;20467;-76
2022/09/08 04:49:32;;;;;;;1.70;1.30;;;;;;;17.46;100.00;155847.94;5051846;28;20473;-76
2022/09/08 04:51:58;;;;;;;1.80;1.00;;;;;;;17.45;100.00;155845.34;5052084;28;20846;-76
2022/09/08 04:54:26;;;;;;;1.63;1.17;;;;;;;17.44;100.00;155842.75;5051833;28;20446;-76
2022/09/08 04:56:53;;;;;;;1.33;1.00;;;;;;;17.46;100.00;155847.94;5051968;28;20985;-76
2022/09/08 04:59:20;;;;;;;1.27;1.00;;;;;;;17.41;100.00;155834.94;5051433;28;20433;-76
2022/09/08 05:01:46;;;;;;;1.87;1.37;;;;;;;17.38;100.00;155827.13;5053049;28;20446;-76
2022/09/08 05:04:13;;;;;;;1.60;1.40;;;;;;;17.38;100.00;155828.44;5051613;28;20454;-76
2022/09/08 05:06:40;;;;;;;2.07;1.20;;;;;;;17.37;100.00;155824.50;5052948;28;20538;-76
2022/09/08 05:09:06;;;;;;;1.60;1.23;;;;;;;17.37;100.00;155824.50;5051452;28;20439;-76
2022/09/08 05:11:35;;;;;;;1.30;1.10;;;;;;;17.34;100.00;155818.00;5051480;28;20442;-76
2022/09/08 05:14:03;;;;;;;1.87;1.37;;;;;;;17.39;100.00;155831.06;5051536;28;20533;-76
2022/09/08 05:16:30;;;;;;;1.90;1.67;;;;;;;17.31;100.00;155808.91;5051436;28;20526;-76
2022/09/08 05:18:58;;;;;;;1.40;1.00;;;;;;;17.31;100.00;155808.91;5051074;28;20419;-76
2022/09/08 05:21:25;;;;;;;2.27;1.20;;;;;;;17.34;100.00;155818.00;5052577;28;20434;-76
2022/09/08 05:23:53;;;;;;;2.00;0.90;;;;;;;17.35;100.00;155819.31;5068009;28;20877;-76
2022/09/08 05:26:21;;;;;;;2.50;1.10;;;;;;;17.37;100.00;155825.81;5067709;28;20431;-76
2022/09/08 05:28:49;;;;;;;1.50;1.10;;;;;;;17.35;100.00;155819.31;5051438;28;20541;-76
2022/09/08 05:31:18;;;;;;;1.33;1.00;;;;;;;17.33;100.00;155814.13;5051479;28;20427;-76
2022/09/08 05:33:45;;;;;;;2.03;1.40;;;;;;;17.28;100.00;155801.09;5067907;28;20435;-76
2022/09/08 05:36:14;;;;;;;1.43;0.90;;;;;;;17.27;100.00;155798.47;5051174;28;20443;-76
2022/09/08 05:38:40;;;;;;;1.67;1.27;;;;;;;17.29;100.00;155803.72;5052493;28;20540;-75
2022/09/08 05:41:09;;;;;;;2.90;1.20;;;;;;;17.28;100.00;155802.41;5052308;28;20434;-76
2022/09/08 05:43:36;;;;;;;1.70;1.20;;;;;;;17.22;100.00;155786.78;5051565;28;20434;-75
2022/09/08 05:46:04;;;;;;;3.83;1.30;;;;;;;17.20;100.00;155780.28;5052356;28;20826;-76
2022/09/08 05:48:31;;;;;;;2.50;1.43;;;;;;;17.22;100.00;155785.47;5052139;28;20466;-76
2022/09/08 05:50:58;;;;;;;1.30;1.07;;;;;;;17.23;100.00;155788.09;5052225;28;20808;-76
2022/09/08 05:53:25;;;;;;;2.33;1.10;;;;;;;17.24;100.00;155791.97;5050779;28;20442;-76
2022/09/08 05:55:57;;;;;;;2.90;1.20;;;;;;;17.19;100.00;155777.66;5067338;28;20443;-76
2022/09/08 05:58:24;;;;;;;1.30;1.13;;;;;;;17.20;100.00;155780.28;5067530;28;20467;-76
2022/09/08 06:00:56;;;;;;;2.13;1.20;;;;;;;17.16;100.00;155769.84;5051611;28;20431;-76
2022/09/08 06:03:24;;;;;;;2.03;1.57;;;;;;;17.20;100.00;155781.59;5052394;28;20767;-76
2022/09/08 06:05:50;;;;;;;2.10;1.40;;;;;;;17.22;100.00;155785.47;5051943;28;20431;-76
2022/09/08 06:08:20;;;;;;;2.00;1.30;;;;;;;17.18;100.00;155775.09;5051970;28;20936;-76
2022/09/08 06:10:50;;;;;;;3.00;1.70;;;;;;;17.16;100.00;155769.84;5066683;28;20787;-76
2022/09/08 06:13:16;;;;;;;1.60;1.33;;;;;;;17.16;100.00;155771.16;5050735;28;20431;-76
2022/09/08 06:15:43;;;;;;;1.70;1.47;;;;;;;17.18;100.00;155775.09;5067412;28;20431;-76
2022/09/08 06:18:10;;;;;;;2.40;1.33;;;;;;;17.21;100.00;155782.91;5052069;28;20454;-76
2022/09/08 06:20:38;;;;;;;1.60;1.30;;;;;;;17.22;100.00;155785.47;5066764;28;20953;-76
2022/09/08 06:23:05;;;;;;;1.50;1.23;;;;;;;17.25;100.00;155793.28;5052226;28;20467;-76
2022/09/08 06:25:31;;;;;;;1.20;1.00;;;;;;;17.19;100.00;155778.97;5051614;28;20438;-77
2022/09/08 06:28:02;;;;;;;2.20;1.10;;;;;;;17.18;100.00;155776.41;5067089;28;20447;-76
2022/09/08 06:30:28;;;;;;;1.40;1.20;;;;;;;17.20;100.00;155780.28;5066704;28;20526;-76
2022/09/08 06:32:58;;;;;;;2.70;1.30;;;;;;;17.15;100.00;155767.28;5052082;28;20447;-77
2022/09/08 06:35:28;;;;;;;2.03;1.03;;;;;;;17.15;100.00;155767.28;5051528;28;20431;-76
2022/09/08 06:37:57;;;;;;;3.10;1.27;;;;;;;17.10;100.00;155754.25;5066827;28;20533;-77
2022/09/08 06:40:28;;;;;;;2.03;1.10;;;;;;;17.05;100.00;155743.81;5050969;28;20423;-76
2022/09/08 06:42:59;;;;;;;1.67;1.03;;;;;;;17.01;100.00;155733.44;5051863;28;20492;-76
2022/09/08 06:45:27;;;;;;;1.00;0.60;;;;;;;16.98;100.00;155725.63;5049969;28;20442;-77
2022/09/08 06:48:16;;;;;;;1.60;1.20;;;;;;;16.99;100.00;155726.94;5051469;28;20536;-77
2022/09/08 06:50:52;;;;;;;1.30;1.10;;;;;;;17.03;100.00;155738.63;5051027;28;20886;-76
2022/09/08 06:53:23;;;;;;;1.13;0.80;;;;;;;16.99;100.00;155726.94;5053801;28;20442;-76
2022/09/08 06:55:54;;;;;;;1.57;0.77;;;;;;;16.95;100.00;155716.50;5054277;28;20454;-77
2022/09/08 06:58:25;;;;;;;2.10;1.10;;;;;;;16.95;100.00;155717.81;5054062;28;20482;-76
2022/09/08 07:00:57;;;;;;;2.03;1.10;;;;;;;16.94;100.00;155715.19;5053738;28;20431;-76
2022/09/08 07:03:49;;;;;;;1.10;0.70;;;;;;;16.93;100.00;155711.31;5070569;28;20468;-76
2022/09/08 07:06:17;;;;;;;1.17;0.87;;;;;;;16.93;100.00;155712.63;5055633;28;20476;-77
2022/09/08 07:09:02;;;;;;;2.77;0.90;;;;;;;16.95;100.00;155717.81;5055214;28;20427;-76
2022/09/08 07:11:41;;;;;;;1.97;1.00;;;;;;;16.99;100.00;155728.25;5070404;28;20430;-76
2022/09/08 07:14:23;;;;;;;1.50;0.80;;;;;;;16.96;100.00;155720.44;5070703;28;20431;-77
2022/09/08 07:16:54;;;;;;;2.00;0.90;;;;;;;16.99;100.00;155728.25;5070510;28;20937;-77
2022/09/08 07:19:23;;;;;;;1.93;1.03;;;;;;;17.00;100.00;155730.81;5053655;28;20450;-77
2022/09/08 07:21:54;;;;;;;4.70;1.00;;;;;;;17.02;100.00;155736.00;5055146;28;20435;-76
2022/09/08 07:24:25;;;;;;;1.50;0.90;;;;;;;16.99;100.00;155728.25;5055184;28;20414;-76
2022/09/08 07:26:55;;;;;;;1.77;1.03;;;;;;;16.97;100.00;155723.00;5070399;28;20451;-77
2022/09/08 07:29:24;;;;;;;2.53;1.27;;;;;;;17.02;100.00;155736.00;5036728;28;20435;-77
2022/09/08 07:31:53;;;;;;;1.43;0.90;;;;;;;17.03;100.00;155738.63;5054944;28;20910;-77
2022/09/08 07:34:22;;;;;;;1.40;0.83;;;;;;;17.08;100.00;155749.06;5054852;28;20423;-76
2022/09/08 07:37:02;;;;;;;1.30;1.03;;;;;;;17.13;100.00;155762.06;5069606;28;20803;-77
2022/09/08 07:39:38;;;;;;;1.40;0.80;;;;;;;17.15;100.00;155767.28;5069855;28;20427;-76
2022/09/08 07:42:06;;;;;;;2.13;0.90;;;;;;;17.20;100.00;155780.28;5055083;28;20913;-77
2022/09/08 07:44:34;;;;;;;1.10;0.97;;;;;;;17.25;100.00;155794.59;5070130;28;20929;-77
2022/09/08 07:47:23;;;;;;;2.50;1.00;;;;;;;17.29;100.00;155803.72;5070274;28;20447;-77
2022/09/08 07:49:53;;;;;;;1.10;0.60;;;;;;;17.40;100.00;155833.63;5069691;28;20845;-77
2022/09/08 07:52:27;;;;;;;1.50;1.10;;;;;;;17.93;100.00;155970.38;5053167;28;20464;-76
2022/09/08 07:55:04;;;;;;;1.30;0.80;;;;;;;18.42;100.00;156095.41;5054700;28;20438;-76
2022/09/08 07:57:41;;;;;;;1.33;1.20;;;;;;;18.57;100.00;156135.84;5054810;28;20470;-77
2022/09/08 08:00:12;;;;;;;1.43;0.80;;;;;;;18.90;100.00;156220.53;5069808;28;20426;-77
2022/09/08 08:02:57;;;;;;;1.30;0.80;;;;;;;19.23;100.00;156306.53;5054754;28;20454;-77
2022/09/08 08:05:28;;;;;;;1.67;1.00;;;;;;;19.49;100.00;156371.72;5053515;28;20832;-77
2022/09/08 08:08:10;;;;;;;3.33;0.90;;;;;;;19.67;99.32;156419.94;5054344;28;20525;-77
2022/09/08 08:10:40;;;;;;;2.00;0.93;;;;;;;20.25;100.00;156568.69;5053656;28;20447;-77
2022/09/08 08:13:14;;;;;;;1.27;0.87;;;;;;;20.68;98.28;156680.84;5069534;28;20438;-77
2022/09/08 08:15:46;;;;;;;1.50;1.17;;;;;;;20.96;93.31;156753.94;5053891;28;20834;-77
2022/09/08 08:18:17;;;;;;;4.07;0.97;;;;;;;21.12;90.36;156794.44;5053824;28;20808;-78
2022/09/08 08:20:51;;;;;;;1.50;0.90;;;;;;;21.34;90.75;156850.56;5069075;28;20442;-77
2022/09/08 08:23:36;;;;;;;2.70;0.90;;;;;;;21.34;88.26;156851.81;5054153;28;20445;-77
2022/09/08 08:26:11;;;;;;;1.53;0.90;;;;;;;21.23;85.77;156823.16;5052320;28;20530;-77
2022/09/08 08:28:42;;;;;;;2.43;1.30;;;;;;;21.35;85.67;156853.13;5068964;28;20458;-77
2022/09/08 08:31:19;;;;;;;1.10;0.80;;;;;;;21.71;86.86;156947.16;5053345;28;20419;-77
2022/09/08 08:33:49;;;;;;;2.40;1.17;;;;;;;21.70;83.01;156945.84;5053767;28;20411;-77
2022/09/08 08:36:18;;;;;;;1.23;0.90;;;;;;;21.77;78.49;156964.09;5053306;28;20446;-77
2022/09/08 08:38:47;;;;;;;1.20;0.80;;;;;;;22.07;82.48;157041.22;5052191;28;20459;-77
2022/09/08 08:41:22;;;;;;;3.57;0.93;;;;;;;22.13;78.61;157056.88;5051926;28;20434;-76
2022/09/08 08:44:01;;;;;;;1.70;1.03;;;;;;;21.84;79.65;156981.09;5053401;28;20429;-79
2022/09/08 08:46:42;;;;;;;1.70;1.17;;;;;;;22.04;76.77;157032.03;5051967;28;20438;-77
2022/09/08 08:49:33;;;;;;;1.30;0.90;;;;;;;22.02;78.92;157026.84;5053104;28;20865;-76
2022/09/08 08:52:16;;;;;;;1.03;0.73;;;;;;;22.30;77.37;157099.94;5069035;28;20501;-78
2022/09/08 08:54:49;;;;;;;3.70;0.90;;;;;;;22.39;76.98;157123.47;5053360;28;20887;-78
2022/09/08 08:57:36;;;;;;;1.40;1.10;;;;;;;22.18;76.29;157068.63;5053161;28;20450;-76
2022/09/08 09:00:15;;;;;;;2.27;0.90;;;;;;;22.19;76.07;157071.22;5068100;28;20435;-77
2022/09/08 09:03:01;;;;;;;1.00;0.80;;;;;;;22.13;74.06;157055.56;5053180;28;20439;-77
2022/09/08 09:05:55;;;;;;;1.60;1.00;;;;;;;22.20;74.73;157073.84;5068451;28;20467;-77
2022/09/08 09:08:43;;;;;;;1.30;1.10;;;;;;;22.20;74.72;157073.84;5053239;28;20428;-77
2022/09/08 09:11:23;;;;;;;1.67;1.00;;;;;;;22.07;71.99;157041.22;5068360;28;20911;-77
2022/09/08 09:14:21;;;;;;;1.10;0.70;;;;;;;22.20;75.48;157073.84;5052842;28;20511;-77
2022/09/08 09:17:04;;;;;;;1.63;0.87;;;;;;;22.55;74.14;157163.97;5050601;28;20490;-76
2022/09/08 09:19:56;;;;;;;1.57;1.00;;;;;;;22.51;76.09;157153.50;5031193;28;20483;-76
2022/09/08 09:22:27;;;;;;;1.27;0.77;;;;;;;22.52;76.42;157157.44;5032796;28;20424;-77
2022/09/08 09:25:11;;;;;;;1.70;1.07;;;;;;;22.25;77.59;157086.91;5048325;28;20530;-77
2022/09/08 09:27:42;;;;;;;2.67;1.17;;;;;;;22.08;75.88;157043.78;5048022;28;20455;-76
2022/09/08 09:30:24;;;;;;;1.53;1.07;;;;;;;21.87;75.49;156987.69;5047925;28;20428;-76
2022/09/08 09:33:24;;;;;;;1.33;1.10;;;;;;;21.73;75.66;156953.69;5031445;28;20459;-76
2022/09/08 09:36:22;;;;;;;2.47;1.20;;;;;;;21.66;77.16;156935.38;5031512;28;20545;-76
2022/09/08 09:39:14;;;;;;;1.60;0.80;;;;;;;21.59;78.45;156915.81;5052404;28;20478;-76
2022/09/08 09:42:05;;;;;;;1.27;1.00;;;;;;;21.48;79.90;156887.06;5052476;28;20909;-77
2022/09/08 09:45:16;;;;;;;1.30;0.97;;;;;;;21.21;79.15;156817.91;5050918;28;20802;-77
2022/09/08 09:47:53;;;;;;;4.20;1.20;;;;;;;21.20;79.01;156815.31;5050892;28;20879;-77
2022/09/08 09:50:34;;;;;;;2.30;1.00;;;;;;;21.19;81.46;156814.00;5051016;28;20411;-77
2022/09/08 09:53:10;;;;;;;2.00;0.90;;;;;;;21.07;77.70;156782.69;5034598;28;20490;-77
2022/09/08 09:55:55;;;;;;;1.10;0.80;;;;;;;21.12;78.99;156795.75;5052718;28;20423;-77
2022/09/08 09:58:46;;;;;;;1.57;1.00;;;;;;;21.19;77.57;156812.69;5050978;28;20471;-76
2022/09/08 10:01:31;;;;;;;2.13;1.10;;;;;;;21.13;74.71;156798.31;5051979;28;20423;-76
2022/09/08 10:04:19;;;;;;;1.40;0.70;;;;;;;21.31;76.73;156844.03;5050972;28;20438;-76
2022/09/08 10:06:56;;;;;;;1.47;0.87;;;;;;;21.39;74.79;156864.91;5051212;28;20439;-77
2022/09/08 10:09:54;;;;;;;2.57;1.17;;;;;;;21.36;74.14;156855.75;5050449;28;20935;-76
2022/09/08 10:12:53;;;;;;;1.73;1.00;;;;;;;21.46;75.11;156881.88;5050473;28;20713;-76
2022/09/08 10:15:59;;;;;;;2.53;1.07;;;;;;;21.47;74.43;156885.75;5050686;28;20518;-76
2022/09/08 10:18:53;;;;;;;3.33;0.80;;;;;;;21.52;70.93;156897.53;5050655;28;20701;-76
2022/09/08 10:21:55;;;;;;;2.20;1.07;;;;;;;21.43;75.27;156875.34;5050525;28;20434;-77
2022/09/08 10:24:54;;;;;;;1.63;0.73;;;;;;;21.41;71.58;156870.13;5050420;28;20422;-77
2022/09/08 10:28:08;;;;;;;2.10;1.40;;;;;;;21.39;71.15;156864.91;5066011;28;20454;-77
2022/09/08 10:30:51;;;;;;;1.60;1.10;;;;;;;21.58;79.10;156914.47;5025153;28;20442;-77
2022/09/08 10:33:33;;;;;;;2.40;1.00;;;;;;;21.65;74.45;156932.78;5067286;28;20596;-77
2022/09/08 10:36:02;;;;;;;1.63;1.10;;;;;;;21.62;70.94;156923.63;5050470;28;20471;-77
2022/09/08 10:38:48;;;;;;;3.30;1.70;;;;;;;21.61;72.19;156922.31;5066759;28;20471;-77
2022/09/08 10:41:54;;;;;;;1.20;0.90;;;;;;;21.48;77.27;156888.38;5066674;28;20489;-77
2022/09/08 10:44:45;;;;;;;2.00;0.83;;;;;;;21.39;73.26;156864.91;5066710;28;20454;-77
2022/09/08 10:47:44;;;;;;;1.10;0.80;;;;;;;21.33;70.97;156849.25;5040659;28;20847;-77
2022/09/08 10:50:19;;;;;;;1.87;1.17;;;;;;;21.33;73.14;156849.25;5051367;28;20938;-77
2022/09/08 10:53:07;;;;;;;1.47;1.00;;;;;;;21.29;74.22;156838.78;5050173;28;20442;-77
2022/09/08 10:56:13;;;;;;;1.50;1.10;;;;;;;21.29;76.93;156838.78;5051416;28;20462;-77
2022/09/08 10:59:11;;;;;;;1.47;1.00;;;;;;;21.30;71.05;156841.41;5049861;28;20535;-77
2022/09/08 11:01:57;;;;;;;1.60;1.00;;;;;;;21.32;72.55;156846.63;5046443;28;20455;-77
2022/09/08 11:05:10;;;;;;;3.43;1.33;;;;;;;21.36;72.75;156857.09;5031490;28;20431;-76
2022/09/08 11:07:55;;;;;;;2.60;1.30;;;;;;;21.26;71.48;156829.66;5046831;28;20447;-76
2022/09/08 11:10:31;;;;;;;1.43;1.10;;;;;;;21.21;71.14;156817.91;5031180;28;20447;-78
2022/09/08 11:13:17;;;;;;;2.07;1.20;;;;;;;21.18;73.90;156811.38;5046782;28;20458;-75
2022/09/08 11:16:00;;;;;;;1.27;0.70;;;;;;;21.14;72.32;156799.63;5031631;28;20420;-76
2022/09/08 11:18:37;;;;;;;1.57;1.07;;;;;;;21.15;72.26;156803.53;5050028;28;20486;-76
2022/09/08 11:21:05;;;;;;;1.60;1.00;;;;;;;21.15;74.37;156803.53;5066633;28;20443;-78
2022/09/08 11:23:42;;;;;;;1.97;0.90;;;;;;;21.07;68.52;156781.38;5050120;28;20450;-75
2022/09/08 11:26:25;;;;;;;1.50;1.10;;;;;;;21.16;72.69;156806.16;5051359;28;20419;-76
2022/09/08 11:28:58;;;;;;;1.63;1.10;;;;;;;21.22;72.21;156820.53;5050117;28;20424;-76
2022/09/08 11:31:36;;;;;;;1.10;0.83;;;;;;;21.26;70.14;156830.94;5049721;28;20546;-78
2022/09/08 11:34:34;;;;;;;1.60;1.00;;;;;;;21.33;69.73;156849.25;5050945;28;20531;-78
2022/09/08 11:37:33;;;;;;;1.80;1.10;;;;;;;21.50;68.48;156893.59;5045661;28;20453;-78
2022/09/08 11:40:19;;;;;;;1.50;1.00;;;;;;;21.60;66.86;156918.44;5053142;28;20459;-78
2022/09/08 11:43:05;;;;;;;2.30;1.00;;;;;;;21.59;68.20;156917.13;5053691;28;20492;-78
2022/09/08 11:45:43;;;;;;;1.20;1.07;;;;;;;21.68;68.35;156939.31;5054379;28;20430;-78
2022/09/08 11:48:30;;;;;;;1.23;1.07;;;;;;;21.68;73.00;156940.59;5053189;28;20486;-78
2022/09/08 11:51:04;;;;;;;2.70;1.13;;;;;;;21.56;67.24;156909.28;5053746;28;20501;-77
2022/09/08 11:53:47;;;;;;;1.20;0.73;;;;;;;21.56;67.13;156909.28;5054831;28;20435;-75